sensor_id;sensor_type;location;lat;lon;timestamp;P1;durP1;ratioP1;P2;durP2;ratioP2
14187;SDS011;7175;51.978;5.330;2022-08-19T00:01:35;95.40;;;89.73;;
14187;SDS011;7175;51.978;5.330;2022-08-19T00:04:05;94.63;;;89.03;;
14187;SDS011;7175;51.978;5.330;2022-08-19T00:06:35;93.20;;;87.70;;
14187;SDS011;7175;51.978;5.330;2022-08-19T00:09:05;94.10;;;88.50;;
14187;SDS011;7175;51.978;5.330;2022-08-19T00:11:36;94.43;;;88.73;;
14187;SDS011;7175;51.978;5.330;2022-08-19T00:14:07;94.37;;;88.67;;
14187;SDS011;7175;51.978;5.330;2022-08-19T00:16:36;95.60;;;89.90;;
14187;SDS011;7175;51.978;5.330;2022-08-19T00:19:05;95.70;;;90.00;;
14187;SDS011;7175;51.978;5.330;2022-08-19T00:21:33;96.47;;;90.67;;
14187;SDS011;7175;51.978;5.330;2022-08-19T00:24:04;96.17;;;90.37;;
14187;SDS011;7175;51.978;5.330;2022-08-19T00:26:34;96.17;;;90.37;;
14187;SDS011;7175;51.978;5.330;2022-08-19T00:29:04;96.77;;;90.93;;
14187;SDS011;7175;51.978;5.330;2022-08-19T00:31:35;96.57;;;90.77;;
14187;SDS011;7175;51.978;5.330;2022-08-19T00:34:03;98.27;;;92.37;;
14187;SDS011;7175;51.978;5.330;2022-08-19T00:36:32;97.83;;;91.97;;
14187;SDS011;7175;51.978;5.330;2022-08-19T00:39:00;96.20;;;90.40;;
14187;SDS011;7175;51.978;5.330;2022-08-19T00:41:28;99.57;;;93.57;;
14187;SDS011;7175;51.978;5.330;2022-08-19T00:44:03;97.37;;;91.47;;
14187;SDS011;7175;51.978;5.330;2022-08-19T00:46:37;98.47;;;92.50;;
14187;SDS011;7175;51.978;5.330;2022-08-19T00:49:09;98.27;;;92.27;;
14187;SDS011;7175;51.978;5.330;2022-08-19T00:51:42;97.33;;;91.43;;
14187;SDS011;7175;51.978;5.330;2022-08-19T00:54:16;98.90;;;92.90;;
14187;SDS011;7175;51.978;5.330;2022-08-19T00:56:55;96.90;;;90.90;;
14187;SDS011;7175;51.978;5.330;2022-08-19T00:59:23;98.20;;;92.00;;
14187;SDS011;7175;51.978;5.330;2022-08-19T01:02:15;97.37;;;91.37;;
14187;SDS011;7175;51.978;5.330;2022-08-19T01:04:43;97.63;;;91.57;;
14187;SDS011;7175;51.978;5.330;2022-08-19T01:07:12;97.20;;;91.20;;
14187;SDS011;7175;51.978;5.330;2022-08-19T01:09:45;97.07;;;91.07;;
14187;SDS011;7175;51.978;5.330;2022-08-19T01:12:14;97.80;;;91.80;;
14187;SDS011;7175;51.978;5.330;2022-08-19T01:14:43;98.20;;;92.10;;
14187;SDS011;7175;51.978;5.330;2022-08-19T01:17:15;99.83;;;93.73;;
14187;SDS011;7175;51.978;5.330;2022-08-19T01:19:46;97.83;;;91.73;;
14187;SDS011;7175;51.978;5.330;2022-08-19T01:22:16;97.10;;;91.00;;
14187;SDS011;7175;51.978;5.330;2022-08-19T01:24:57;99.00;;;92.80;;
14187;SDS011;7175;51.978;5.330;2022-08-19T01:27:26;99.23;;;93.00;;
14187;SDS011;7175;51.978;5.330;2022-08-19T01:30:07;100.00;;;93.70;;
14187;SDS011;7175;51.978;5.330;2022-08-19T01:32:37;100.30;;;94.03;;
14187;SDS011;7175;51.978;5.330;2022-08-19T01:35:06;100.20;;;93.90;;
14187;SDS011;7175;51.978;5.330;2022-08-19T01:37:41;100.80;;;94.40;;
14187;SDS011;7175;51.978;5.330;2022-08-19T01:40:12;100.47;;;94.17;;
14187;SDS011;7175;51.978;5.330;2022-08-19T01:42:41;100.90;;;94.50;;
14187;SDS011;7175;51.978;5.330;2022-08-19T01:45:09;97.90;;;91.70;;
14187;SDS011;7175;51.978;5.330;2022-08-19T01:47:38;98.70;;;92.40;;
14187;SDS011;7175;51.978;5.330;2022-08-19T01:50:07;101.00;;;94.60;;
14187;SDS011;7175;51.978;5.330;2022-08-19T01:52:38;100.53;;;94.20;;
14187;SDS011;7175;51.978;5.330;2022-08-19T01:55:08;99.77;;;93.40;;
14187;SDS011;7175;51.978;5.330;2022-08-19T01:57:41;100.83;;;94.33;;
14187;SDS011;7175;51.978;5.330;2022-08-19T02:00:12;100.30;;;93.80;;
14187;SDS011;7175;51.978;5.330;2022-08-19T02:02:42;101.13;;;94.63;;
14187;SDS011;7175;51.978;5.330;2022-08-19T02:05:11;100.63;;;94.13;;
14187;SDS011;7175;51.978;5.330;2022-08-19T02:07:41;100.90;;;94.40;;
14187;SDS011;7175;51.978;5.330;2022-08-19T02:10:14;102.10;;;95.60;;
14187;SDS011;7175;51.978;5.330;2022-08-19T02:12:46;102.00;;;95.40;;
14187;SDS011;7175;51.978;5.330;2022-08-19T02:15:15;103.20;;;96.50;;
14187;SDS011;7175;51.978;5.330;2022-08-19T02:17:46;100.77;;;94.27;;
14187;SDS011;7175;51.978;5.330;2022-08-19T02:20:15;102.83;;;96.23;;
14187;SDS011;7175;51.978;5.330;2022-08-19T02:22:44;102.60;;;96.10;;
14187;SDS011;7175;51.978;5.330;2022-08-19T02:25:12;101.87;;;95.37;;
14187;SDS011;7175;51.978;5.330;2022-08-19T02:27:41;101.00;;;94.50;;
14187;SDS011;7175;51.978;5.330;2022-08-19T02:30:13;101.03;;;94.63;;
14187;SDS011;7175;51.978;5.330;2022-08-19T02:32:43;101.40;;;94.93;;
14187;SDS011;7175;51.978;5.330;2022-08-19T02:35:12;103.20;;;96.70;;
14187;SDS011;7175;51.978;5.330;2022-08-19T02:37:41;100.70;;;94.37;;
14187;SDS011;7175;51.978;5.330;2022-08-19T02:40:28;99.53;;;93.23;;
14187;SDS011;7175;51.978;5.330;2022-08-19T02:43:00;100.90;;;94.50;;
14187;SDS011;7175;51.978;5.330;2022-08-19T02:45:32;99.77;;;93.33;;
14187;SDS011;7175;51.978;5.330;2022-08-19T02:48:02;100.07;;;93.67;;
14187;SDS011;7175;51.978;5.330;2022-08-19T02:50:43;102.40;;;95.80;;
14187;SDS011;7175;51.978;5.330;2022-08-19T02:53:19;103.13;;;96.53;;
14187;SDS011;7175;51.978;5.330;2022-08-19T02:55:49;101.77;;;95.17;;
14187;SDS011;7175;51.978;5.330;2022-08-19T02:58:17;103.03;;;96.43;;
14187;SDS011;7175;51.978;5.330;2022-08-19T03:00:51;102.77;;;96.17;;
14187;SDS011;7175;51.978;5.330;2022-08-19T03:03:21;103.30;;;96.70;;
14187;SDS011;7175;51.978;5.330;2022-08-19T03:05:50;102.23;;;95.70;;
14187;SDS011;7175;51.978;5.330;2022-08-19T03:08:22;102.77;;;96.20;;
14187;SDS011;7175;51.978;5.330;2022-08-19T03:10:52;103.03;;;96.53;;
14187;SDS011;7175;51.978;5.330;2022-08-19T03:13:21;105.50;;;98.90;;
14187;SDS011;7175;51.978;5.330;2022-08-19T03:15:51;103.67;;;97.17;;
14187;SDS011;7175;51.978;5.330;2022-08-19T03:18:19;101.50;;;95.00;;
14187;SDS011;7175;51.978;5.330;2022-08-19T03:20:49;102.97;;;96.47;;
14187;SDS011;7175;51.978;5.330;2022-08-19T03:23:22;103.63;;;97.03;;
14187;SDS011;7175;51.978;5.330;2022-08-19T03:25:51;102.17;;;95.57;;
14187;SDS011;7175;51.978;5.330;2022-08-19T03:28:40;103.40;;;96.70;;
14187;SDS011;7175;51.978;5.330;2022-08-19T03:31:19;104.47;;;97.77;;
14187;SDS011;7175;51.978;5.330;2022-08-19T03:34:09;105.00;;;98.30;;
14187;SDS011;7175;51.978;5.330;2022-08-19T03:36:39;102.53;;;95.93;;
14187;SDS011;7175;51.978;5.330;2022-08-19T03:39:07;105.47;;;98.47;;
14187;SDS011;7175;51.978;5.330;2022-08-19T03:41:39;103.63;;;96.93;;
14187;SDS011;7175;51.978;5.330;2022-08-19T03:44:11;105.50;;;98.70;;
14187;SDS011;7175;51.978;5.330;2022-08-19T03:46:45;105.67;;;98.73;;
14187;SDS011;7175;51.978;5.330;2022-08-19T03:49:18;105.43;;;98.63;;
14187;SDS011;7175;51.978;5.330;2022-08-19T03:51:54;106.87;;;100.03;;
14187;SDS011;7175;51.978;5.330;2022-08-19T03:54:24;105.77;;;98.90;;
14187;SDS011;7175;51.978;5.330;2022-08-19T03:56:54;106.53;;;99.67;;
14187;SDS011;7175;51.978;5.330;2022-08-19T03:59:24;106.63;;;99.73;;
14187;SDS011;7175;51.978;5.330;2022-08-19T04:01:57;104.17;;;97.47;;
14187;SDS011;7175;51.978;5.330;2022-08-19T04:04:27;102.90;;;96.20;;
14187;SDS011;7175;51.978;5.330;2022-08-19T04:06:57;105.07;;;98.27;;
14187;SDS011;7175;51.978;5.330;2022-08-19T04:09:25;105.70;;;98.90;;
14187;SDS011;7175;51.978;5.330;2022-08-19T04:11:55;108.10;;;101.00;;
14187;SDS011;7175;51.978;5.330;2022-08-19T04:14:27;111.10;;;103.90;;
14187;SDS011;7175;51.978;5.330;2022-08-19T04:16:59;112.07;;;104.67;;
14187;SDS011;7175;51.978;5.330;2022-08-19T04:19:31;114.13;;;106.00;;
14187;SDS011;7175;51.978;5.330;2022-08-19T04:22:01;112.73;;;105.43;;
14187;SDS011;7175;51.978;5.330;2022-08-19T04:24:31;113.77;;;106.27;;
14187;SDS011;7175;51.978;5.330;2022-08-19T04:27:01;112.77;;;105.07;;
14187;SDS011;7175;51.978;5.330;2022-08-19T04:29:30;112.37;;;104.97;;
14187;SDS011;7175;51.978;5.330;2022-08-19T04:32:01;109.37;;;102.07;;
14187;SDS011;7175;51.978;5.330;2022-08-19T04:34:36;112.17;;;104.30;;
14187;SDS011;7175;51.978;5.330;2022-08-19T04:37:25;112.50;;;105.10;;
14187;SDS011;7175;51.978;5.330;2022-08-19T04:40:03;113.17;;;105.97;;
14187;SDS011;7175;51.978;5.330;2022-08-19T04:42:51;110.50;;;103.27;;
14187;SDS011;7175;51.978;5.330;2022-08-19T04:45:20;109.33;;;102.33;;
14187;SDS011;7175;51.978;5.330;2022-08-19T04:47:53;112.73;;;105.73;;
14187;SDS011;7175;51.978;5.330;2022-08-19T04:50:45;110.80;;;103.70;;
14187;SDS011;7175;51.978;5.330;2022-08-19T04:53:14;110.20;;;103.30;;
14187;SDS011;7175;51.978;5.330;2022-08-19T04:55:43;108.10;;;101.20;;
14187;SDS011;7175;51.978;5.330;2022-08-19T04:58:12;109.40;;;102.30;;
14187;SDS011;7175;51.978;5.330;2022-08-19T05:00:42;109.17;;;102.20;;
14187;SDS011;7175;51.978;5.330;2022-08-19T05:03:12;106.13;;;99.13;;
14187;SDS011;7175;51.978;5.330;2022-08-19T05:05:42;108.80;;;101.60;;
14187;SDS011;7175;51.978;5.330;2022-08-19T05:08:12;105.80;;;98.80;;
14187;SDS011;7175;51.978;5.330;2022-08-19T05:10:59;107.20;;;99.73;;
14187;SDS011;7175;51.978;5.330;2022-08-19T05:13:28;104.50;;;97.40;;
14187;SDS011;7175;51.978;5.330;2022-08-19T05:15:57;104.23;;;97.03;;
14187;SDS011;7175;51.978;5.330;2022-08-19T05:18:27;105.03;;;97.73;;
14187;SDS011;7175;51.978;5.330;2022-08-19T05:21:14;105.20;;;97.90;;
14187;SDS011;7175;51.978;5.330;2022-08-19T05:24:03;108.43;;;100.93;;
14187;SDS011;7175;51.978;5.330;2022-08-19T05:26:36;108.50;;;101.00;;
14187;SDS011;7175;51.978;5.330;2022-08-19T05:29:06;106.37;;;98.97;;
14187;SDS011;7175;51.978;5.330;2022-08-19T05:31:35;108.70;;;101.20;;
14187;SDS011;7175;51.978;5.330;2022-08-19T05:34:09;109.50;;;102.00;;
14187;SDS011;7175;51.978;5.330;2022-08-19T05:36:45;107.70;;;100.20;;
14187;SDS011;7175;51.978;5.330;2022-08-19T05:39:16;109.13;;;101.23;;
14187;SDS011;7175;51.978;5.330;2022-08-19T05:41:49;114.13;;;106.17;;
14187;SDS011;7175;51.978;5.330;2022-08-19T05:44:20;114.60;;;106.70;;
14187;SDS011;7175;51.978;5.330;2022-08-19T05:46:49;118.70;;;110.53;;
14187;SDS011;7175;51.978;5.330;2022-08-19T05:49:22;126.23;;;117.83;;
14187;SDS011;7175;51.978;5.330;2022-08-19T05:51:51;131.73;;;122.63;;
14187;SDS011;7175;51.978;5.330;2022-08-19T05:54:22;134.17;;;123.53;;
14187;SDS011;7175;51.978;5.330;2022-08-19T05:56:51;128.97;;;119.87;;
14187;SDS011;7175;51.978;5.330;2022-08-19T05:59:20;128.47;;;119.57;;
14187;SDS011;7175;51.978;5.330;2022-08-19T06:01:51;132.80;;;123.83;;
14187;SDS011;7175;51.978;5.330;2022-08-19T06:04:22;133.73;;;124.33;;
14187;SDS011;7175;51.978;5.330;2022-08-19T06:06:52;131.80;;;122.80;;
14187;SDS011;7175;51.978;5.330;2022-08-19T06:09:24;127.20;;;118.40;;
14187;SDS011;7175;51.978;5.330;2022-08-19T06:11:53;130.93;;;121.87;;
14187;SDS011;7175;51.978;5.330;2022-08-19T06:14:28;129.27;;;120.10;;
14187;SDS011;7175;51.978;5.330;2022-08-19T06:16:58;124.00;;;115.33;;
14187;SDS011;7175;51.978;5.330;2022-08-19T06:19:34;127.10;;;118.40;;
14187;SDS011;7175;51.978;5.330;2022-08-19T06:22:07;129.80;;;120.70;;
14187;SDS011;7175;51.978;5.330;2022-08-19T06:24:38;129.70;;;120.87;;
14187;SDS011;7175;51.978;5.330;2022-08-19T06:27:07;125.03;;;116.50;;
14187;SDS011;7175;51.978;5.330;2022-08-19T06:29:36;119.97;;;111.37;;
14187;SDS011;7175;51.978;5.330;2022-08-19T06:32:05;117.77;;;109.63;;
14187;SDS011;7175;51.978;5.330;2022-08-19T06:34:35;120.67;;;112.37;;
14187;SDS011;7175;51.978;5.330;2022-08-19T06:37:04;115.90;;;107.90;;
14187;SDS011;7175;51.978;5.330;2022-08-19T06:39:35;111.47;;;103.50;;
14187;SDS011;7175;51.978;5.330;2022-08-19T06:42:05;119.93;;;111.63;;
14187;SDS011;7175;51.978;5.330;2022-08-19T06:44:38;116.30;;;108.03;;
14187;SDS011;7175;51.978;5.330;2022-08-19T06:47:15;113.23;;;105.33;;
14187;SDS011;7175;51.978;5.330;2022-08-19T06:49:56;112.00;;;104.33;;
14187;SDS011;7175;51.978;5.330;2022-08-19T06:52:29;112.77;;;105.10;;
14187;SDS011;7175;51.978;5.330;2022-08-19T06:55:00;108.10;;;100.60;;
14187;SDS011;7175;51.978;5.330;2022-08-19T06:57:32;102.53;;;95.63;;
14187;SDS011;7175;51.978;5.330;2022-08-19T07:00:01;100.73;;;93.90;;
14187;SDS011;7175;51.978;5.330;2022-08-19T07:02:35;92.77;;;86.57;;
14187;SDS011;7175;51.978;5.330;2022-08-19T07:05:07;93.10;;;87.20;;
14187;SDS011;7175;51.978;5.330;2022-08-19T07:07:38;88.57;;;82.77;;
14187;SDS011;7175;51.978;5.330;2022-08-19T07:10:13;85.83;;;80.33;;
14187;SDS011;7175;51.978;5.330;2022-08-19T07:12:42;82.80;;;77.47;;
14187;SDS011;7175;51.978;5.330;2022-08-19T07:15:11;77.47;;;72.47;;
14187;SDS011;7175;51.978;5.330;2022-08-19T07:17:42;72.90;;;68.20;;
14187;SDS011;7175;51.978;5.330;2022-08-19T07:20:14;64.07;;;59.80;;
14187;SDS011;7175;51.978;5.330;2022-08-19T07:22:44;56.60;;;52.80;;
14187;SDS011;7175;51.978;5.330;2022-08-19T07:25:14;54.77;;;51.17;;
14187;SDS011;7175;51.978;5.330;2022-08-19T07:27:44;50.90;;;47.40;;
14187;SDS011;7175;51.978;5.330;2022-08-19T07:30:20;47.93;;;44.57;;
14187;SDS011;7175;51.978;5.330;2022-08-19T07:32:51;43.63;;;40.53;;
14187;SDS011;7175;51.978;5.330;2022-08-19T07:35:21;41.23;;;38.33;;
14187;SDS011;7175;51.978;5.330;2022-08-19T07:37:50;41.20;;;38.20;;
14187;SDS011;7175;51.978;5.330;2022-08-19T07:40:19;35.33;;;32.77;;
14187;SDS011;7175;51.978;5.330;2022-08-19T07:42:48;33.57;;;31.07;;
14187;SDS011;7175;51.978;5.330;2022-08-19T07:45:17;32.43;;;30.03;;
14187;SDS011;7175;51.978;5.330;2022-08-19T07:47:45;32.57;;;29.90;;
14187;SDS011;7175;51.978;5.330;2022-08-19T07:50:18;29.23;;;26.93;;
14187;SDS011;7175;51.978;5.330;2022-08-19T07:52:49;28.20;;;25.90;;
14187;SDS011;7175;51.978;5.330;2022-08-19T07:55:19;29.37;;;27.07;;
14187;SDS011;7175;51.978;5.330;2022-08-19T07:58:09;27.20;;;25.00;;
14187;SDS011;7175;51.978;5.330;2022-08-19T08:00:39;25.80;;;23.70;;
14187;SDS011;7175;51.978;5.330;2022-08-19T08:03:08;26.80;;;24.50;;
14187;SDS011;7175;51.978;5.330;2022-08-19T08:05:43;25.20;;;23.00;;
14187;SDS011;7175;51.978;5.330;2022-08-19T08:08:30;25.33;;;23.23;;
14187;SDS011;7175;51.978;5.330;2022-08-19T08:11:18;23.80;;;21.80;;
14187;SDS011;7175;51.978;5.330;2022-08-19T08:13:49;23.90;;;21.90;;
14187;SDS011;7175;51.978;5.330;2022-08-19T08:16:30;23.00;;;21.10;;
14187;SDS011;7175;51.978;5.330;2022-08-19T08:19:12;24.47;;;22.47;;
14187;SDS011;7175;51.978;5.330;2022-08-19T08:21:51;23.27;;;21.27;;
14187;SDS011;7175;51.978;5.330;2022-08-19T08:24:22;22.10;;;20.20;;
14187;SDS011;7175;51.978;5.330;2022-08-19T08:26:53;22.47;;;20.27;;
14187;SDS011;7175;51.978;5.330;2022-08-19T08:29:24;21.30;;;19.53;;
14187;SDS011;7175;51.978;5.330;2022-08-19T08:32:00;21.70;;;19.90;;
14187;SDS011;7175;51.978;5.330;2022-08-19T08:34:40;21.53;;;19.73;;
14187;SDS011;7175;51.978;5.330;2022-08-19T08:37:09;23.37;;;21.37;;
14187;SDS011;7175;51.978;5.330;2022-08-19T08:39:39;22.40;;;20.43;;
14187;SDS011;7175;51.978;5.330;2022-08-19T08:42:09;21.00;;;19.30;;
14187;SDS011;7175;51.978;5.330;2022-08-19T08:44:47;27.92;;;25.92;;
14187;SDS011;7175;51.978;5.330;2022-08-19T08:47:20;22.00;;;20.10;;
14187;SDS011;7175;51.978;5.330;2022-08-19T08:49:51;21.33;;;19.63;;
14187;SDS011;7175;51.978;5.330;2022-08-19T08:52:22;20.93;;;19.13;;
14187;SDS011;7175;51.978;5.330;2022-08-19T08:54:59;22.13;;;20.33;;
14187;SDS011;7175;51.978;5.330;2022-08-19T08:57:37;22.10;;;20.00;;
14187;SDS011;7175;51.978;5.330;2022-08-19T09:00:11;20.57;;;18.87;;
14187;SDS011;7175;51.978;5.330;2022-08-19T09:02:44;21.23;;;19.43;;
14187;SDS011;7175;51.978;5.330;2022-08-19T09:05:16;21.60;;;19.47;;
14187;SDS011;7175;51.978;5.330;2022-08-19T09:07:53;21.20;;;19.40;;
14187;SDS011;7175;51.978;5.330;2022-08-19T09:10:31;21.27;;;19.47;;
14187;SDS011;7175;51.978;5.330;2022-08-19T09:13:12;21.50;;;19.40;;
14187;SDS011;7175;51.978;5.330;2022-08-19T09:15:51;20.47;;;18.77;;
14187;SDS011;7175;51.978;5.330;2022-08-19T09:18:23;20.90;;;19.20;;
14187;SDS011;7175;51.978;5.330;2022-08-19T09:20:55;20.90;;;19.20;;
14187;SDS011;7175;51.978;5.330;2022-08-19T09:23:24;26.80;;;19.83;;
14187;SDS011;7175;51.978;5.330;2022-08-19T09:25:54;20.27;;;18.57;;
14187;SDS011;7175;51.978;5.330;2022-08-19T09:28:24;19.73;;;18.03;;
14187;SDS011;7175;51.978;5.330;2022-08-19T09:30:52;21.00;;;19.00;;
14187;SDS011;7175;51.978;5.330;2022-08-19T09:33:22;21.87;;;19.87;;
14187;SDS011;7175;51.978;5.330;2022-08-19T09:35:50;21.47;;;19.67;;
14187;SDS011;7175;51.978;5.330;2022-08-19T09:38:36;20.87;;;19.13;;
14187;SDS011;7175;51.978;5.330;2022-08-19T09:41:12;20.00;;;18.40;;
14187;SDS011;7175;51.978;5.330;2022-08-19T09:43:44;20.57;;;18.87;;
14187;SDS011;7175;51.978;5.330;2022-08-19T09:46:15;21.13;;;19.33;;
14187;SDS011;7175;51.978;5.330;2022-08-19T09:48:48;21.97;;;19.87;;
14187;SDS011;7175;51.978;5.330;2022-08-19T09:51:17;20.57;;;18.97;;
14187;SDS011;7175;51.978;5.330;2022-08-19T09:53:50;20.60;;;18.90;;
14187;SDS011;7175;51.978;5.330;2022-08-19T09:56:22;21.10;;;19.40;;
14187;SDS011;7175;51.978;5.330;2022-08-19T09:58:51;21.43;;;19.23;;
14187;SDS011;7175;51.978;5.330;2022-08-19T10:01:21;20.80;;;19.10;;
14187;SDS011;7175;51.978;5.330;2022-08-19T10:03:52;21.80;;;20.00;;
14187;SDS011;7175;51.978;5.330;2022-08-19T10:06:22;20.67;;;19.00;;
14187;SDS011;7175;51.978;5.330;2022-08-19T10:09:13;25.13;;;22.60;;
14187;SDS011;7175;51.978;5.330;2022-08-19T10:12:01;22.67;;;20.53;;
14187;SDS011;7175;51.978;5.330;2022-08-19T10:14:44;21.43;;;19.63;;
14187;SDS011;7175;51.978;5.330;2022-08-19T10:17:15;21.53;;;19.73;;
14187;SDS011;7175;51.978;5.330;2022-08-19T10:22:24;23.70;;;21.63;;
14187;SDS011;7175;51.978;5.330;2022-08-19T10:24:54;21.13;;;19.30;;
14187;SDS011;7175;51.978;5.330;2022-08-19T10:27:24;21.70;;;19.80;;
14187;SDS011;7175;51.978;5.330;2022-08-19T10:30:01;22.90;;;21.00;;
14187;SDS011;7175;51.978;5.330;2022-08-19T10:35:39;22.10;;;19.83;;
14187;SDS011;7175;51.978;5.330;2022-08-19T10:38:24;21.53;;;19.73;;
14187;SDS011;7175;51.978;5.330;2022-08-19T10:41:12;22.80;;;20.83;;
14187;SDS011;7175;51.978;5.330;2022-08-19T10:49:51;21.70;;;19.90;;
14187;SDS011;7175;51.978;5.330;2022-08-19T10:52:39;22.57;;;20.63;;
14187;SDS011;7175;51.978;5.330;2022-08-19T10:55:17;22.00;;;20.13;;
14187;SDS011;7175;51.978;5.330;2022-08-19T10:58:09;22.13;;;19.97;;
14187;SDS011;7175;51.978;5.330;2022-08-19T11:00:52;20.93;;;19.23;;
14187;SDS011;7175;51.978;5.330;2022-08-19T11:03:29;21.97;;;19.63;;
14187;SDS011;7175;51.978;5.330;2022-08-19T11:06:06;20.40;;;18.67;;
14187;SDS011;7175;51.978;5.330;2022-08-19T11:11:29;20.73;;;18.93;;
14187;SDS011;7175;51.978;5.330;2022-08-19T11:14:13;20.50;;;18.80;;
14187;SDS011;7175;51.978;5.330;2022-08-19T11:16:48;20.43;;;18.73;;
14187;SDS011;7175;51.978;5.330;2022-08-19T11:19:25;20.87;;;19.17;;
14187;SDS011;7175;51.978;5.330;2022-08-19T11:30:01;21.13;;;18.93;;
14187;SDS011;7175;51.978;5.330;2022-08-19T11:32:33;20.73;;;19.03;;
14187;SDS011;7175;51.978;5.330;2022-08-19T11:35:04;22.50;;;20.60;;
14187;SDS011;7175;51.978;5.330;2022-08-19T11:37:39;21.37;;;19.57;;
14187;SDS011;7175;51.978;5.330;2022-08-19T11:40:16;22.20;;;20.23;;
14187;SDS011;7175;51.978;5.330;2022-08-19T11:42:46;21.47;;;19.40;;
14187;SDS011;7175;51.978;5.330;2022-08-19T11:45:25;22.50;;;20.57;;
14187;SDS011;7175;51.978;5.330;2022-08-19T11:47:56;22.53;;;20.57;;
14187;SDS011;7175;51.978;5.330;2022-08-19T11:50:28;21.63;;;19.73;;
14187;SDS011;7175;51.978;5.330;2022-08-19T11:52:59;20.27;;;18.57;;
14187;SDS011;7175;51.978;5.330;2022-08-19T11:55:36;21.47;;;19.57;;
14187;SDS011;7175;51.978;5.330;2022-08-19T11:58:13;21.00;;;19.13;;
14187;SDS011;7175;51.978;5.330;2022-08-19T12:00:50;20.83;;;19.03;;
14187;SDS011;7175;51.978;5.330;2022-08-19T12:03:30;21.27;;;19.37;;
14187;SDS011;7175;51.978;5.330;2022-08-19T12:08:37;22.53;;;20.53;;
14187;SDS011;7175;51.978;5.330;2022-08-19T12:11:13;21.67;;;18.63;;
14187;SDS011;7175;51.978;5.330;2022-08-19T12:13:43;20.37;;;18.47;;
14187;SDS011;7175;51.978;5.330;2022-08-19T12:19:08;20.87;;;19.07;;
14187;SDS011;7175;51.978;5.330;2022-08-19T12:21:59;20.20;;;18.50;;
14187;SDS011;7175;51.978;5.330;2022-08-19T12:24:30;20.67;;;18.97;;
14187;SDS011;7175;51.978;5.330;2022-08-19T12:27:03;20.13;;;18.43;;
14187;SDS011;7175;51.978;5.330;2022-08-19T12:29:44;21.00;;;19.20;;
14187;SDS011;7175;51.978;5.330;2022-08-19T12:35:39;20.10;;;18.40;;
14187;SDS011;7175;51.978;5.330;2022-08-19T12:38:13;20.43;;;18.63;;
14187;SDS011;7175;51.978;5.330;2022-08-19T12:40:45;20.30;;;18.53;;
14187;SDS011;7175;51.978;5.330;2022-08-19T12:43:20;20.23;;;18.53;;
14187;SDS011;7175;51.978;5.330;2022-08-19T12:45:50;20.43;;;18.73;;
14187;SDS011;7175;51.978;5.330;2022-08-19T12:48:31;19.87;;;18.13;;
14187;SDS011;7175;51.978;5.330;2022-08-19T12:51:05;20.33;;;18.63;;
14187;SDS011;7175;51.978;5.330;2022-08-19T12:56:25;20.30;;;18.60;;
14187;SDS011;7175;51.978;5.330;2022-08-19T12:58:57;20.30;;;18.60;;
14187;SDS011;7175;51.978;5.330;2022-08-19T13:01:45;21.23;;;19.43;;
14187;SDS011;7175;51.978;5.330;2022-08-19T13:04:15;20.07;;;18.47;;
14187;SDS011;7175;51.978;5.330;2022-08-19T13:06:53;20.17;;;18.57;;
14187;SDS011;7175;51.978;5.330;2022-08-19T13:09:28;20.20;;;18.50;;
14187;SDS011;7175;51.978;5.330;2022-08-19T13:11:56;22.60;;;19.37;;
14187;SDS011;7175;51.978;5.330;2022-08-19T13:14:31;20.87;;;19.07;;
14187;SDS011;7175;51.978;5.330;2022-08-19T13:17:05;20.47;;;18.77;;
14187;SDS011;7175;51.978;5.330;2022-08-19T13:19:36;19.97;;;18.27;;
14187;SDS011;7175;51.978;5.330;2022-08-19T13:22:10;20.60;;;18.80;;
14187;SDS011;7175;51.978;5.330;2022-08-19T13:24:46;20.37;;;18.50;;
14187;SDS011;7175;51.978;5.330;2022-08-19T13:27:14;19.97;;;18.10;;
14187;SDS011;7175;51.978;5.330;2022-08-19T13:29:43;20.73;;;18.93;;
14187;SDS011;7175;51.978;5.330;2022-08-19T13:32:31;19.40;;;17.77;;
14187;SDS011;7175;51.978;5.330;2022-08-19T13:35:18;20.67;;;18.90;;
14187;SDS011;7175;51.978;5.330;2022-08-19T13:37:46;19.80;;;18.20;;
14187;SDS011;7175;51.978;5.330;2022-08-19T13:40:24;20.40;;;18.67;;
14187;SDS011;7175;51.978;5.330;2022-08-19T13:43:05;20.33;;;18.73;;
14187;SDS011;7175;51.978;5.330;2022-08-19T13:45:48;23.13;;;21.10;;
14187;SDS011;7175;51.978;5.330;2022-08-19T13:48:28;20.90;;;19.20;;
14187;SDS011;7175;51.978;5.330;2022-08-19T13:51:10;24.07;;;21.97;;
14187;SDS011;7175;51.978;5.330;2022-08-19T13:53:39;26.47;;;24.37;;
14187;SDS011;7175;51.978;5.330;2022-08-19T13:56:17;26.73;;;24.57;;
14187;SDS011;7175;51.978;5.330;2022-08-19T14:01:26;32.53;;;30.03;;
14187;SDS011;7175;51.978;5.330;2022-08-19T14:04:00;32.90;;;30.40;;
14187;SDS011;7175;51.978;5.330;2022-08-19T14:06:28;32.90;;;30.40;;
14187;SDS011;7175;51.978;5.330;2022-08-19T14:08:59;34.20;;;31.60;;
14187;SDS011;7175;51.978;5.330;2022-08-19T14:11:30;32.17;;;29.67;;
14187;SDS011;7175;51.978;5.330;2022-08-19T14:13:58;33.70;;;31.10;;
14187;SDS011;7175;51.978;5.330;2022-08-19T14:16:28;33.30;;;30.70;;
14187;SDS011;7175;51.978;5.330;2022-08-19T14:18:58;35.43;;;32.73;;
14187;SDS011;7175;51.978;5.330;2022-08-19T14:21:27;34.60;;;31.90;;
14187;SDS011;7175;51.978;5.330;2022-08-19T14:24:03;34.70;;;32.00;;
14187;SDS011;7175;51.978;5.330;2022-08-19T14:26:34;36.30;;;33.50;;
14187;SDS011;7175;51.978;5.330;2022-08-19T14:29:03;38.23;;;35.33;;
14187;SDS011;7175;51.978;5.330;2022-08-19T14:31:32;38.03;;;35.13;;
14187;SDS011;7175;51.978;5.330;2022-08-19T14:34:02;38.67;;;35.67;;
14187;SDS011;7175;51.978;5.330;2022-08-19T14:36:34;40.90;;;37.87;;
14187;SDS011;7175;51.978;5.330;2022-08-19T14:39:05;41.67;;;38.57;;
14187;SDS011;7175;51.978;5.330;2022-08-19T14:41:41;44.43;;;41.23;;
14187;SDS011;7175;51.978;5.330;2022-08-19T14:44:11;47.60;;;44.20;;
14187;SDS011;7175;51.978;5.330;2022-08-19T14:46:41;48.33;;;44.87;;
14187;SDS011;7175;51.978;5.330;2022-08-19T14:49:16;48.70;;;45.20;;
14187;SDS011;7175;51.978;5.330;2022-08-19T14:51:44;50.17;;;46.63;;
14187;SDS011;7175;51.978;5.330;2022-08-19T14:54:19;47.40;;;44.00;;
14187;SDS011;7175;51.978;5.330;2022-08-19T14:56:52;49.30;;;45.80;;
14187;SDS011;7175;51.978;5.330;2022-08-19T14:59:22;51.00;;;47.40;;
14187;SDS011;7175;51.978;5.330;2022-08-19T15:01:51;49.47;;;45.97;;
14187;SDS011;7175;51.978;5.330;2022-08-19T15:04:21;50.00;;;46.50;;
14187;SDS011;7175;51.978;5.330;2022-08-19T15:06:56;52.17;;;48.57;;
14187;SDS011;7175;51.978;5.330;2022-08-19T15:09:34;51.40;;;47.90;;
14187;SDS011;7175;51.978;5.330;2022-08-19T15:12:04;53.47;;;49.77;;
14187;SDS011;7175;51.978;5.330;2022-08-19T15:14:35;53.33;;;49.63;;
14187;SDS011;7175;51.978;5.330;2022-08-19T15:17:08;56.57;;;52.57;;
14187;SDS011;7175;51.978;5.330;2022-08-19T15:19:38;58.73;;;54.73;;
14187;SDS011;7175;51.978;5.330;2022-08-19T15:22:06;59.70;;;55.60;;
14187;SDS011;7175;51.978;5.330;2022-08-19T15:27:32;57.53;;;53.53;;
14187;SDS011;7175;51.978;5.330;2022-08-19T15:30:02;49.07;;;45.57;;
14187;SDS011;7175;51.978;5.330;2022-08-19T15:32:37;46.57;;;43.37;;
14187;SDS011;7175;51.978;5.330;2022-08-19T15:35:06;42.93;;;39.83;;
14187;SDS011;7175;51.978;5.330;2022-08-19T15:37:34;44.40;;;41.20;;
14187;SDS011;7175;51.978;5.330;2022-08-19T15:40:03;45.90;;;42.60;;
14187;SDS011;7175;51.978;5.330;2022-08-19T15:42:35;44.40;;;41.20;;